Time;durP1;ratioP1;P1;durP2;ratioP2;P2;SDS_P1;SDS_P2;PMS_P1;PMS_P2;Temp;Humidity;BMP_temperature;BMP_pressure;BME280_temperature;BME280_humidity;BME280_pressure;Samples;Min_cycle;Max_cycle;Signal;HPM_P1;HPM_P2
2022/08/18 00:02:08;;;;;;;22.33;13.45;;;19.70;99.90;;;;;;5075737;28;20123;-74
2022/08/18 00:04:37;;;;;;;24.30;12.85;;;19.70;99.90;;;;;;5076234;28;20048;-74
2022/08/18 00:07:05;;;;;;;20.88;11.90;;;19.70;99.90;;;;;;5075392;28;20051;-74
2022/08/18 00:09:37;;;;;;;21.30;12.18;;;19.60;99.90;;;;;;5094769;28;20107;-74
2022/08/18 00:12:07;;;;;;;19.92;12.43;;;19.60;99.90;;;;;;5076297;28;20710;-74
2022/08/18 00:14:33;;;;;;;17.88;12.23;;;19.60;99.90;;;;;;5089772;28;20434;-74
2022/08/18 00:16:59;;;;;;;19.50;11.48;;;19.60;99.90;;;;;;5076664;28;20119;-74
2022/08/18 00:19:25;;;;;;;18.83;11.65;;;19.60;99.90;;;;;;5074577;28;20040;-74
2022/08/18 00:21:51;;;;;;;19.15;11.90;;;19.60;99.90;;;;;;5090269;28;20123;-74
2022/08/18 00:24:16;;;;;;;19.65;11.32;;;19.70;99.90;;;;;;5073972;28;20677;-74
2022/08/18 00:26:42;;;;;;;22.00;11.27;;;19.70;99.90;;;;;;5080152;28;20084;-74
2022/08/18 00:29:08;;;;;;;17.10;10.70;;;19.60;99.90;;;;;;5071200;28;20044;-74
2022/08/18 00:31:34;;;;;;;19.27;10.50;;;19.60;99.90;;;;;;5057685;28;20541;-74
2022/08/18 00:34:00;;;;;;;14.57;10.73;;;19.60;99.90;;;;;;5072838;28;20515;-74
2022/08/18 00:36:26;;;;;;;16.48;10.35;;;19.60;99.90;;;;;;5063963;28;20652;-74
2022/08/18 00:38:52;;;;;;;17.80;10.40;;;19.60;99.90;;;;;;5071724;28;20047;-74
2022/08/18 00:41:19;;;;;;;14.65;10.27;;;19.60;99.90;;;;;;5053854;28;20040;-74
2022/08/18 00:43:48;;;;;;;16.20;10.85;;;19.60;99.90;;;;;;5056658;28;20056;-74
2022/08/18 00:46:23;;;;;;;15.98;9.93;;;19.60;99.90;;;;;;5067038;28;20036;-74
2022/08/18 00:48:51;;;;;;;15.57;10.07;;;19.60;99.90;;;;;;5071039;28;20062;-74
2022/08/18 00:51:46;;;;;;;18.73;10.43;;;19.60;99.90;;;;;;5084144;28;20046;-75
2022/08/18 00:54:24;;;;;;;18.67;9.50;;;19.60;99.90;;;;;;5073017;28;20063;-73
2022/08/18 00:56:54;;;;;;;18.13;8.80;;;19.60;99.90;;;;;;5068939;28;20387;-73
2022/08/18 00:59:36;;;;;;;12.25;8.68;;;19.50;99.90;;;;;;5050510;28;20161;-73
2022/08/18 01:02:05;;;;;;;12.70;7.97;;;19.50;99.90;;;;;;5071076;28;20124;-73
2022/08/18 01:04:37;;;;;;;17.50;8.57;;;19.50;99.90;;;;;;5066273;28;20127;-73
2022/08/18 01:07:35;;;;;;;16.42;8.50;;;19.50;99.90;;;;;;5067752;28;20048;-73
2022/08/18 01:10:04;;;;;;;11.23;7.20;;;19.50;99.90;;;;;;5060341;28;20044;-73
2022/08/18 01:12:30;;;;;;;14.98;7.60;;;19.50;99.90;;;;;;5068582;28;20063;-73
2022/08/18 01:14:56;;;;;;;13.05;7.90;;;19.50;99.90;;;;;;5086532;28;20036;-73
2022/08/18 01:23:13;;;;;;;14.80;8.00;;;19.50;99.90;;;;;;5061102;28;20127;-73
2022/08/18 01:28:24;;;;;;;15.88;7.65;;;19.40;99.90;;;;;;5056464;28;20037;-73
2022/08/18 01:30:57;;;;;;;13.77;7.63;;;19.40;99.90;;;;;;5073623;28;20040;-73
2022/08/18 01:33:35;;;;;;;12.30;7.30;;;19.40;99.90;;;;;;5073750;28;20034;-73
2022/08/18 01:36:13;;;;;;;14.60;7.13;;;19.40;99.90;;;;;;5071510;28;20102;-73
2022/08/18 01:38:39;;;;;;;11.40;6.93;;;19.40;99.90;;;;;;5078001;28;20127;-73
2022/08/18 01:41:06;;;;;;;15.00;7.32;;;19.40;99.90;;;;;;5081227;28;20060;-73
2022/08/18 01:43:34;;;;;;;15.85;7.95;;;19.50;99.90;;;;;;5086169;28;20047;-73
2022/08/18 01:46:03;;;;;;;12.93;7.40;;;19.50;99.90;;;;;;5065913;28;20036;-73
2022/08/18 01:48:32;;;;;;;13.43;8.07;;;19.40;99.90;;;;;;5085973;28;20045;-73
2022/08/18 01:51:03;;;;;;;16.05;8.27;;;19.50;99.90;;;;;;5066078;28;20051;-73
2022/08/18 01:53:29;;;;;;;16.95;7.70;;;19.40;99.90;;;;;;5060586;28;20036;-73
2022/08/18 01:55:55;;;;;;;10.85;7.82;;;19.40;99.90;;;;;;5073926;28;20048;-73
2022/08/18 01:58:26;;;;;;;12.95;7.93;;;19.40;99.90;;;;;;5073319;28;20044;-73
2022/08/18 02:00:57;;;;;;;13.50;7.50;;;19.40;99.90;;;;;;5074380;28;20043;-73
2022/08/18 02:03:26;;;;;;;15.40;7.60;;;19.50;99.90;;;;;;5040760;28;20182;-74
2022/08/18 02:05:59;;;;;;;14.05;7.70;;;19.40;99.90;;;;;;5060019;28;20040;-74
2022/08/18 02:08:25;;;;;;;;;;;19.40;99.90;;;;;;5061375;28;20043;-74
2022/08/18 02:10:51;;;;;;;12.77;7.05;;;19.50;99.90;;;;;;5073558;28;19916;-73
2022/08/18 02:13:17;;;;;;;12.82;7.60;;;19.40;99.90;;;;;;5082772;28;20039;-73
2022/08/18 02:15:43;;;;;;;15.38;7.13;;;19.40;99.90;;;;;;5075968;28;20047;-73
2022/08/18 02:18:14;;;;;;;16.10;7.70;;;19.50;99.90;;;;;;5081837;28;20041;-73
2022/08/18 02:20:40;;;;;;;11.23;7.50;;;19.50;99.90;;;;;;5090617;28;20043;-73
2022/08/18 02:23:05;;;;;;;12.75;7.10;;;19.50;99.90;;;;;;5078363;28;20036;-73
2022/08/18 02:25:31;;;;;;;11.38;6.78;;;19.50;99.90;;;;;;5088028;28;20032;-73
2022/08/18 02:27:57;;;;;;;15.35;7.63;;;19.50;99.90;;;;;;5091588;28;20079;-73
2022/08/18 02:30:22;;;;;;;11.02;7.57;;;19.50;99.90;;;;;;5058958;28;20051;-73
2022/08/18 02:32:49;;;;;;;13.60;7.25;;;19.50;99.90;;;;;;5090441;28;20363;-73
2022/08/18 02:35:14;;;;;;;16.08;7.47;;;19.50;99.90;;;;;;5070420;28;20076;-73
2022/08/18 02:37:41;;;;;;;14.00;7.22;;;19.50;99.90;;;;;;5053627;28;20080;-73
2022/08/18 02:40:08;;;;;;;14.45;8.13;;;19.50;99.90;;;;;;5055838;28;20037;-73
2022/08/18 02:42:34;;;;;;;14.20;7.90;;;19.50;99.90;;;;;;5089707;28;20123;-74
2022/08/18 02:45:00;;;;;;;18.27;7.65;;;19.50;99.90;;;;;;5060849;28;20118;-73
2022/08/18 02:47:25;;;;;;;17.30;8.45;;;19.50;99.90;;;;;;5057733;28;20093;-73
2022/08/18 02:49:51;;;;;;;18.70;9.05;;;19.50;99.90;;;;;;5067318;28;20093;-73
2022/08/18 02:52:16;;;;;;;18.55;10.30;;;19.50;99.90;;;;;;5094836;28;20119;-73
2022/08/18 02:54:42;;;;;;;22.90;12.48;;;19.50;99.90;;;;;;5076193;28;20044;-73
2022/08/18 02:57:10;;;;;;;23.25;11.35;;;19.50;99.90;;;;;;5074066;28;20047;-73
2022/08/18 02:59:38;;;;;;;16.90;11.93;;;19.50;99.90;;;;;;5069896;28;20068;-73
2022/08/18 03:02:05;;;;;;;18.98;10.95;;;19.50;99.90;;;;;;5084592;28;20123;-73
2022/08/18 03:04:31;;;;;;;22.30;12.02;;;19.50;99.90;;;;;;5083105;28;20059;-74
2022/08/18 03:07:00;;;;;;;18.90;11.70;;;19.50;99.90;;;;;;5079453;28;20036;-74
2022/08/18 03:09:26;;;;;;;22.05;12.07;;;19.50;99.90;;;;;;5076081;28;20048;-74
2022/08/18 03:11:53;;;;;;;20.20;11.80;;;19.50;99.90;;;;;;5094776;28;20394;-73
2022/08/18 03:14:19;;;;;;;17.45;12.02;;;19.50;99.90;;;;;;5090970;28;20047;-73
2022/08/18 03:16:46;;;;;;;21.90;12.93;;;19.50;99.90;;;;;;5075579;28;20033;-73
2022/08/18 03:19:16;;;;;;;18.73;13.60;;;19.50;99.90;;;;;;5076871;28;20517;-74
2022/08/18 03:21:45;;;;;;;23.42;14.27;;;19.50;99.90;;;;;;5065885;28;20380;-74
2022/08/18 03:24:11;;;;;;;24.13;15.85;;;19.50;99.90;;;;;;5058550;28;20475;-74
2022/08/18 03:26:42;;;;;;;22.40;14.70;;;19.50;99.90;;;;;;5077004;28;20036;-74
2022/08/18 03:29:09;;;;;;;37.60;17.13;;;19.50;99.90;;;;;;5076173;28;20483;-74
2022/08/18 03:31:36;;;;;;;26.65;15.90;;;19.50;99.90;;;;;;5094751;28;20093;-74
2022/08/18 03:34:03;;;;;;;26.13;15.00;;;19.50;99.90;;;;;;5071368;28;20668;-74
2022/08/18 03:36:31;;;;;;;27.08;13.98;;;19.40;99.90;;;;;;5075304;28;20487;-73
2022/08/18 03:38:56;;;;;;;25.90;14.35;;;19.40;99.90;;;;;;5105221;28;20553;-73
2022/08/18 03:41:25;;;;;;;20.83;14.43;;;19.40;99.90;;;;;;5072203;28;20120;-73
2022/08/18 03:43:51;;;;;;;24.13;13.55;;;19.40;99.90;;;;;;5081192;28;20568;-73
2022/08/18 03:46:20;;;;;;;24.23;13.75;;;19.40;99.90;;;;;;5057061;28;20056;-73
2022/08/18 03:48:47;;;;;;;22.90;12.85;;;19.40;99.90;;;;;;5070363;28;20047;-73
2022/08/18 03:51:25;;;;;;;28.52;13.15;;;19.40;99.90;;;;;;5063478;28;20110;-73
2022/08/18 03:53:53;;;;;;;22.92;12.48;;;19.40;99.90;;;;;;5066172;28;20545;-73
2022/08/18 03:56:22;;;;;;;24.38;12.90;;;19.40;99.90;;;;;;5076017;28;20370;-74
2022/08/18 03:58:52;;;;;;;22.42;12.45;;;19.40;99.90;;;;;;5075688;28;20383;-74
2022/08/18 04:01:20;;;;;;;20.50;12.57;;;19.40;99.90;;;;;;5073019;28;20521;-74
2022/08/18 04:03:52;;;;;;;21.38;12.85;;;19.40;99.90;;;;;;5039243;28;20115;-74
2022/08/18 04:06:21;;;;;;;18.40;11.18;;;19.40;99.90;;;;;;5087388;28;20036;-74
2022/08/18 04:08:49;;;;;;;19.00;10.43;;;19.40;99.90;;;;;;5081703;28;20081;-74
2022/08/18 04:11:15;;;;;;;21.63;11.43;;;19.40;99.90;;;;;;5075893;28;20395;-74
2022/08/18 04:13:40;;;;;;;23.23;11.68;;;19.40;99.90;;;;;;5104840;28;20040;-74
2022/08/18 04:16:07;;;;;;;20.42;10.75;;;19.40;99.90;;;;;;5059421;28;20047;-74
2022/08/18 04:18:32;;;;;;;19.63;11.07;;;19.40;99.90;;;;;;5086815;28;20489;-74
2022/08/18 04:21:06;;;;;;;22.60;11.55;;;19.40;99.90;;;;;;5092227;28;20078;-74
2022/08/18 04:23:33;;;;;;;24.38;11.80;;;19.40;99.90;;;;;;5064043;28;20044;-74
2022/08/18 04:26:00;;;;;;;19.98;11.43;;;19.40;99.90;;;;;;5067991;28;20433;-74
2022/08/18 04:28:26;;;;;;;17.40;10.93;;;19.40;99.90;;;;;;5075362;28;20379;-74
2022/08/18 04:30:53;;;;;;;22.20;10.30;;;19.40;99.90;;;;;;5075050;28;20035;-74
2022/08/18 04:33:19;;;;;;;18.23;9.65;;;19.40;99.90;;;;;;5059111;28;20036;-74
2022/08/18 04:35:45;;;;;;;27.88;12.10;;;19.40;99.90;;;;;;5093437;28;20036;-74
2022/08/18 04:38:12;;;;;;;24.23;10.70;;;19.40;99.90;;;;;;5075664;28;20032;-74
2022/08/18 04:40:37;;;;;;;18.50;10.52;;;19.40;99.90;;;;;;5074646;28;20490;-74
2022/08/18 04:43:03;;;;;;;22.25;11.02;;;19.40;99.90;;;;;;5075253;28;20097;-74
2022/08/18 04:45:29;;;;;;;24.95;11.75;;;19.40;99.90;;;;;;5075175;28;20055;-74
2022/08/18 04:47:56;;;;;;;19.98;9.75;;;19.40;99.90;;;;;;5074714;28;20801;-74
2022/08/18 04:50:23;;;;;;;19.02;10.35;;;19.30;99.90;;;;;;5074532;28;20048;-74
2022/08/18 04:55:33;;;;;;;23.73;11.57;;;19.40;99.90;;;;;;5074444;28;20066;-74
2022/08/18 04:57:59;;;;;;;24.00;11.88;;;19.30;99.90;;;;;;5073316;28;20054;-74
2022/08/18 05:00:25;;;;;;;18.65;10.98;;;19.40;99.90;;;;;;5067813;28;20036;-74
2022/08/18 05:02:53;;;;;;;25.08;12.13;;;19.30;99.90;;;;;;5091198;28;20540;-74
2022/08/18 05:05:19;;;;;;;25.92;10.63;;;19.30;99.90;;;;;;5079090;28;20047;-74
2022/08/18 05:07:46;;;;;;;22.02;10.95;;;19.40;99.90;;;;;;5068877;28;20133;-74
2022/08/18 05:10:16;;;;;;;20.42;11.32;;;19.40;99.90;;;;;;5081833;28;20097;-73
2022/08/18 05:12:42;;;;;;;16.05;10.73;;;19.40;99.90;;;;;;5074976;28;20036;-74
2022/08/18 05:15:09;;;;;;;19.75;11.05;;;19.40;99.90;;;;;;5085107;28;20048;-73
2022/08/18 05:17:38;;;;;;;20.38;11.07;;;19.40;99.90;;;;;;5079996;28;20431;-73
2022/08/18 05:20:07;;;;;;;19.45;10.63;;;19.40;99.90;;;;;;5079143;28;20040;-73
2022/08/18 05:22:42;;;;;;;18.40;10.45;;;19.30;99.90;;;;;;5072499;28;20036;-73
2022/08/18 05:25:10;;;;;;;21.63;10.68;;;19.30;99.90;;;;;;5072118;28;20040;-74
2022/08/18 05:27:38;;;;;;;19.13;10.27;;;19.30;99.90;;;;;;5079401;28;20068;-74
2022/08/18 05:30:06;;;;;;;20.40;11.18;;;19.40;99.90;;;;;;5060267;28;20495;-74
2022/08/18 05:32:43;;;;;;;16.27;11.02;;;19.30;99.90;;;;;;5080003;28;20096;-73
2022/08/18 05:35:17;;;;;;;17.35;11.73;;;19.40;99.90;;;;;;5076978;28;20089;-73
2022/08/18 05:37:57;;;;;;;25.48;11.60;;;19.40;99.90;;;;;;5064339;28;20120;-73
2022/08/18 05:40:24;;;;;;;20.50;11.15;;;19.40;99.90;;;;;;5087395;28;20040;-73
2022/08/18 05:42:50;;;;;;;23.27;11.57;;;19.40;99.90;;;;;;5082821;28;20047;-74
2022/08/18 05:45:18;;;;;;;20.27;11.80;;;19.30;99.90;;;;;;5073855;28;20051;-73
2022/08/18 05:47:44;;;;;;;20.00;11.30;;;19.40;99.90;;;;;;5082684;28;20044;-74
2022/08/18 05:50:16;;;;;;;23.38;12.07;;;19.40;99.90;;;;;;5075061;28;20394;-73
2022/08/18 05:53:02;;;;;;;21.38;12.00;;;19.40;99.90;;;;;;5083112;28;20044;-73
2022/08/18 05:58:30;;;;;;;21.10;12.00;;;19.50;99.90;;;;;;5073573;28;20067;-73
2022/08/18 06:01:01;;;;;;;19.83;11.35;;;19.50;99.90;;;;;;5083713;28;20036;-73
2022/08/18 06:03:50;;;;;;;20.08;12.07;;;19.50;99.90;;;;;;5065303;28;20043;-73
2022/08/18 06:06:23;;;;;;;19.48;11.55;;;19.60;99.90;;;;;;5059019;28;20040;-73
2022/08/18 06:09:04;;;;;;;21.08;11.63;;;19.60;99.90;;;;;;5056380;28;20036;-73
2022/08/18 06:11:30;;;;;;;17.58;10.93;;;19.60;99.90;;;;;;5085444;28;20040;-73
2022/08/18 06:13:56;;;;;;;15.60;10.48;;;19.60;99.90;;;;;;5079086;28;20410;-73
2022/08/18 06:16:28;;;;;;;18.65;10.38;;;19.70;99.90;;;;;;5097499;28;20040;-73
2022/08/18 06:19:18;;;;;;;16.80;9.98;;;19.80;99.90;;;;;;5085429;28;20043;-73
2022/08/18 06:22:06;;;;;;;14.32;8.98;;;19.80;99.90;;;;;;5069682;28;20028;-73
2022/08/18 06:24:43;;;;;;;12.02;8.20;;;19.80;99.90;;;;;;5088349;28;20105;-73
2022/08/18 06:27:39;;;;;;;13.85;7.95;;;19.90;99.90;;;;;;5073990;28;20036;-74
2022/08/18 06:30:13;;;;;;;9.95;7.93;;;19.90;99.90;;;;;;5059045;28;20040;-73
2022/08/18 06:32:51;;;;;;;12.75;8.40;;;19.90;99.90;;;;;;5089552;28;20043;-73
2022/08/18 06:35:20;;;;;;;12.40;8.05;;;20.00;99.90;;;;;;5077546;28;20040;-73
2022/08/18 06:41:20;;;;;;;13.48;8.68;;;20.10;99.90;;;;;;5070230;28;20044;-74
2022/08/18 06:44:12;;;;;;;11.50;8.27;;;20.20;99.90;;;;;;5055099;28;20048;-74
2022/08/18 06:46:57;;;;;;;13.68;7.85;;;20.20;99.90;;;;;;5071225;28;20039;-73
2022/08/18 06:49:30;;;;;;;11.43;8.18;;;20.20;99.90;;;;;;5090517;28;20119;-74
2022/08/18 06:51:56;;;;;;;12.93;7.90;;;20.20;99.90;;;;;;5068397;28;20498;-73
2022/08/18 06:54:21;;;;;;;11.10;7.07;;;20.20;99.90;;;;;;5086451;28;20075;-73
2022/08/18 06:56:50;;;;;;;10.93;7.40;;;20.30;99.90;;;;;;5066321;28;20040;-73
2022/08/18 06:59:22;;;;;;;10.07;7.18;;;20.30;99.90;;;;;;5056794;28;20051;-73
2022/08/18 07:01:52;;;;;;;10.80;6.68;;;20.30;99.90;;;;;;5074678;28;20040;-73
2022/08/18 07:04:36;;;;;;;10.05;6.75;;;20.40;99.90;;;;;;5077736;28;20032;-73
2022/08/18 07:07:19;;;;;;;12.85;7.43;;;20.40;99.90;;;;;;5078074;28;20097;-73
2022/08/18 07:09:45;;;;;;;9.85;7.05;;;20.30;99.90;;;;;;5070596;28;20036;-73
2022/08/18 07:12:19;;;;;;;11.52;6.70;;;20.30;99.90;;;;;;5071546;28;20071;-75
2022/08/18 07:14:49;;;;;;;11.75;6.40;;;20.30;99.90;;;;;;5059968;28;20044;-74
2022/08/18 07:17:22;;;;;;;9.75;6.47;;;20.40;99.90;;;;;;5082711;28;20056;-74
2022/08/18 07:20:00;;;;;;;13.80;6.35;;;20.40;99.90;;;;;;5076988;28;20075;-72
2022/08/18 07:22:26;;;;;;;11.38;6.60;;;20.40;99.90;;;;;;5091060;28;20071;-74
2022/08/18 07:24:54;;;;;;;10.93;7.50;;;20.50;99.90;;;;;;5067525;28;20089;-73
2022/08/18 07:27:47;;;;;;;9.25;6.63;;;20.50;99.90;;;;;;5070509;28;20555;-73
2022/08/18 07:30:13;;;;;;;10.85;6.10;;;20.60;99.90;;;;;;5070345;28;20044;-73
2022/08/18 07:32:50;;;;;;;8.85;6.45;;;20.60;99.90;;;;;;5065985;28;20054;-73
2022/08/18 07:35:22;;;;;;;10.65;5.82;;;20.60;99.90;;;;;;5080833;28;20039;-73
2022/08/18 07:38:03;;;;;;;8.70;5.45;;;20.70;99.90;;;;;;5093537;28;20028;-73
2022/08/18 07:40:38;;;;;;;10.00;5.60;;;20.60;99.90;;;;;;5091337;28;20036;-73
2022/08/18 07:43:12;;;;;;;13.23;5.60;;;20.70;99.90;;;;;;5077440;28;20035;-73
2022/08/18 07:45:46;;;;;;;10.05;5.20;;;20.70;99.90;;;;;;5074270;28;20051;-73
2022/08/18 07:48:24;;;;;;;7.20;4.65;;;20.60;99.90;;;;;;5067819;28;20047;-73
2022/08/18 07:50:58;;;;;;;7.13;4.80;;;20.60;99.90;;;;;;5069008;28;20044;-73
2022/08/18 07:53:24;;;;;;;5.45;4.85;;;20.60;99.90;;;;;;5065361;28;20048;-73
2022/08/18 07:55:57;;;;;;;8.50;5.13;;;20.70;99.90;;;;;;5079899;28;20379;-73
2022/08/18 07:58:39;;;;;;;6.45;4.97;;;20.70;99.90;;;;;;5079039;28;20043;-73
2022/08/18 08:01:26;;;;;;;6.13;4.85;;;20.70;99.90;;;;;;5079505;28;20494;-73
2022/08/18 08:04:23;;;;;;;16.25;9.77;;;20.70;99.90;;;;;;5078951;28;20059;-73
2022/08/18 08:06:59;;;;;;;6.72;4.93;;;20.60;99.90;;;;;;5073602;28;20122;-73
2022/08/18 08:09:49;;;;;;;7.15;5.20;;;20.70;99.90;;;;;;5065765;28;20175;-72
2022/08/18 08:12:50;;;;;;;8.65;4.60;;;20.70;99.90;;;;;;5062703;28;20044;-72
2022/08/18 08:15:35;;;;;;;9.00;4.43;;;20.70;99.90;;;;;;5071116;28;20040;-72
2022/08/18 08:18:19;;;;;;;5.93;4.57;;;20.70;99.90;;;;;;5065826;28;20040;-73
2022/08/18 08:20:54;;;;;;;6.93;4.28;;;20.80;99.90;;;;;;5092213;28;20036;-73
2022/08/18 08:23:50;;;;;;;6.88;4.10;;;20.90;99.90;;;;;;5086031;28;20040;-73
2022/08/18 08:26:21;;;;;;;5.93;3.53;;;21.00;99.90;;;;;;5075338;28;20052;-73
2022/08/18 08:28:54;;;;;;;6.10;3.38;;;21.10;99.90;;;;;;5075370;28;20402;-72
2022/08/18 08:31:38;;;;;;;8.18;3.38;;;21.20;99.90;;;;;;5073617;28;20498;-72
2022/08/18 08:34:12;;;;;;;4.50;2.80;;;21.20;99.90;;;;;;5089491;28;20032;-72
2022/08/18 08:36:43;;;;;;;6.65;2.70;;;21.30;99.90;;;;;;5065140;28;20108;-72
2022/08/18 08:39:15;;;;;;;6.57;2.67;;;21.30;99.90;;;;;;5070974;28;20119;-73
2022/08/18 08:41:50;;;;;;;7.13;2.70;;;21.40;99.90;;;;;;5082418;28;20085;-72
2022/08/18 08:44:39;;;;;;;4.47;2.17;;;21.50;99.90;;;;;;5092176;28;20521;-72
2022/08/18 08:47:25;;;;;;;5.47;1.60;;;21.50;99.90;;;;;;5092327;28;20036;-72
2022/08/18 08:49:57;;;;;;;2.75;1.45;;;21.60;99.90;;;;;;5091545;28;20044;-73
2022/08/18 08:52:29;;;;;;;;;;;21.60;99.90;;;;;;5092215;28;20082;-73
2022/08/18 08:55:27;;;;;;;2.78;1.92;;;21.50;99.90;;;;;;5074600;28;19966;-73
2022/08/18 08:58:21;;;;;;;6.43;2.00;;;21.50;99.90;;;;;;5074429;28;20077;-73
2022/08/18 09:00:48;;;;;;;9.77;2.50;;;21.40;99.90;;;;;;5074355;28;20127;-73
2022/08/18 09:03:14;;;;;;;7.82;2.72;;;21.40;99.90;;;;;;5086892;28;20494;-73
2022/08/18 09:06:07;;;;;;;5.07;2.10;;;21.30;99.90;;;;;;5091625;28;20050;-72
2022/08/18 09:08:54;;;;;;;7.07;2.50;;;21.30;99.90;;;;;;5062564;28;20063;-72
2022/08/18 09:11:51;;;;;;;5.18;2.40;;;21.20;99.90;;;;;;5087300;28;20052;-73
2022/08/18 09:14:20;;;;;;;8.00;2.58;;;21.10;99.90;;;;;;5087356;28;20418;-73
2022/08/18 09:16:54;;;;;;;7.93;2.80;;;21.00;99.90;;;;;;5079402;28;20481;-73
2022/08/18 09:19:46;;;;;;;6.68;2.72;;;21.00;99.90;;;;;;5065604;28;20502;-73
2022/08/18 09:22:37;;;;;;;58.88;52.78;;;21.00;99.90;;;;;;5092613;28;20514;-72
2022/08/18 09:25:28;;;;;;;9.13;3.28;;;21.00;99.90;;;;;;5071855;28;20126;-73
2022/08/18 09:28:12;;;;;;;5.70;2.55;;;21.10;99.90;;;;;;5077377;28;20381;-73
2022/08/18 09:30:53;;;;;;;10.80;3.00;;;21.20;99.90;;;;;;5069423;28;20479;-73
2022/08/18 09:33:44;;;;;;;9.65;3.28;;;21.30;99.90;;;;;;5099648;28;20390;-73
2022/08/18 09:36:42;;;;;;;9.10;3.22;;;21.40;99.90;;;;;;5067518;28;20451;-73
2022/08/18 09:42:06;;;;;;;8.48;3.25;;;21.60;99.90;;;;;;5083825;28;20457;-73
2022/08/18 09:44:47;;;;;;;11.63;3.00;;;21.80;99.90;;;;;;5074262;28;20456;-73
2022/08/18 09:47:19;;;;;;;7.53;3.10;;;21.90;99.90;;;;;;5069475;28;20094;-74
2022/08/18 09:49:45;;;;;;;9.63;3.10;;;22.10;99.90;;;;;;5066872;28;20406;-73
2022/08/18 09:52:20;;;;;;;8.30;2.65;;;22.20;99.90;;;;;;5053910;28;20124;-73
2022/08/18 09:55:14;;;;;;;9.13;2.72;;;22.40;99.90;;;;;;5053812;28;20044;-73
2022/08/18 09:57:40;;;;;;;8.05;2.75;;;22.50;99.90;;;;;;5040002;28;20056;-73
2022/08/18 10:00:15;;;;;;;6.93;2.60;;;22.70;99.90;;;;;;5085902;28;20448;-73
2022/08/18 10:02:41;;;;;;;5.35;2.10;;;22.80;99.90;;;;;;5074730;28;20044;-73
2022/08/18 10:05:15;;;;;;;7.30;2.95;;;22.90;99.90;;;;;;5078876;28;20051;-73
2022/08/18 10:07:48;;;;;;;6.15;2.10;;;22.80;99.90;;;;;;5074439;28;20050;-73
2022/08/18 10:10:35;;;;;;;8.25;2.10;;;22.90;99.90;;;;;;5074456;28;20043;-73
2022/08/18 10:13:17;;;;;;;4.55;2.28;;;22.90;99.90;;;;;;5073914;28;20031;-73
2022/08/18 10:16:18;;;;;;;3.47;2.00;;;22.80;99.90;;;;;;5063834;28;20121;-73
2022/08/18 10:19:09;;;;;;;4.75;2.38;;;22.70;99.90;;;;;;5073245;28;20036;-73
2022/08/18 10:21:54;;;;;;;7.05;2.50;;;22.60;99.90;;;;;;5070086;28;20046;-73
2022/08/18 10:24:22;;;;;;;4.60;2.00;;;22.50;99.90;;;;;;5061691;28;20063;-73
2022/08/18 10:26:48;;;;;;;6.88;2.30;;;22.50;99.90;;;;;;5060044;28;20044;-73
2022/08/18 10:29:22;;;;;;;5.05;2.10;;;22.50;99.90;;;;;;5083744;28;20043;-72
2022/08/18 10:32:08;;;;;;;3.00;1.60;;;22.60;99.90;;;;;;5098863;28;20051;-73
2022/08/18 10:34:39;;;;;;;5.68;2.10;;;22.60;99.90;;;;;;5045611;28;20280;-73
2022/08/18 10:37:38;;;;;;;5.88;1.85;;;22.70;99.90;;;;;;5074435;28;20115;-73
2022/08/18 10:40:12;;;;;;;5.85;1.80;;;22.60;99.90;;;;;;5074590;28;20043;-72
2022/08/18 10:42:41;;;;;;;2.95;1.90;;;22.60;99.90;;;;;;5080546;28;20040;-73
2022/08/18 10:45:17;;;;;;;3.50;1.80;;;22.70;99.90;;;;;;5074594;28;20123;-73
2022/08/18 10:47:56;;;;;;;3.50;1.65;;;22.70;99.90;;;;;;5079398;28;20141;-73
2022/08/18 10:50:26;;;;;;;3.67;1.48;;;22.80;99.90;;;;;;5080145;28;20063;-73
2022/08/18 10:53:17;;;;;;;5.00;1.50;;;22.90;99.90;;;;;;5069931;28;20047;-73
2022/08/18 10:56:04;;;;;;;2.83;1.25;;;23.00;99.90;;;;;;5081822;28;20036;-73
2022/08/18 10:59:15;;;;;;;2.50;1.35;;;23.30;99.90;;;;;;5064986;28;20044;-73
2022/08/18 11:02:02;;;;;;;4.35;1.30;;;23.40;99.90;;;;;;5048005;28;20044;-72
2022/08/18 11:04:50;;;;;;;1.30;1.20;;;23.60;99.90;;;;;;5061769;28;20064;-73
2022/08/18 11:07:28;;;;;;;1.77;1.30;;;23.70;99.90;;;;;;5055416;28;20116;-73
2022/08/18 11:09:56;;;;;;;1.65;1.17;;;23.70;99.90;;;;;;5076585;28;20069;-72
2022/08/18 11:13:06;;;;;;;2.78;1.52;;;23.80;99.90;;;;;;5052309;28;20153;-73
2022/08/18 11:15:41;;;;;;;4.32;1.50;;;23.80;99.90;;;;;;5044288;28;20052;-72
2022/08/18 11:18:35;;;;;;;2.80;1.50;;;23.70;99.90;;;;;;5072412;28;20044;-72
2022/08/18 11:21:25;;;;;;;2.90;1.20;;;23.60;99.90;;;;;;5066306;28;20036;-73
2022/08/18 11:24:10;;;;;;;1.70;1.05;;;23.50;99.90;;;;;;5077613;28;20490;-72
2022/08/18 11:26:47;;;;;;;3.30;1.25;;;23.60;99.90;;;;;;5080107;28;20044;-73
2022/08/18 11:29:25;;;;;;;4.30;1.17;;;23.70;99.90;;;;;;5079701;28;20036;-72
2022/08/18 11:31:57;;;;;;;3.08;1.30;;;23.80;99.90;;;;;;5074179;28;20124;-73
2022/08/18 11:34:36;;;;;;;1.90;1.17;;;23.90;99.90;;;;;;5094658;28;20363;-73
2022/08/18 11:37:05;;;;;;;4.50;1.50;;;24.00;99.90;;;;;;5076476;28;20035;-73
2022/08/18 11:39:32;;;;;;;3.40;1.30;;;24.10;99.90;;;;;;5076004;28;20036;-73
2022/08/18 11:41:58;;;;;;;2.65;1.20;;;24.10;99.90;;;;;;5067439;28;20047;-73
2022/08/18 11:44:30;;;;;;;1.55;1.40;;;24.10;99.90;;;;;;5077292;28;20482;-73
2022/08/18 11:47:15;;;;;;;3.10;2.40;;;24.20;99.90;;;;;;5072841;28;20044;-73
2022/08/18 11:49:53;;;;;;;3.08;1.58;;;24.30;99.90;;;;;;5071785;28;20040;-72
2022/08/18 11:52:28;;;;;;;3.88;1.60;;;24.50;99.90;;;;;;5075635;28;20052;-73
2022/08/18 11:55:03;;;;;;;2.55;1.45;;;24.50;99.90;;;;;;5088554;28;20040;-73
2022/08/18 11:57:53;;;;;;;5.03;1.52;;;24.60;99.90;;;;;;5055730;28;20048;-74
2022/08/18 12:00:42;;;;;;;3.70;1.20;;;24.60;99.90;;;;;;5084400;28;20042;-72
2022/08/18 12:03:27;;;;;;;1.65;1.20;;;24.70;99.90;;;;;;5089925;28;20036;-73
2022/08/18 12:05:58;;;;;;;3.22;1.50;;;24.60;99.90;;;;;;5084167;28;20071;-73
2022/08/18 12:08:34;;;;;;;4.28;1.40;;;24.60;99.90;;;;;;5078493;28;20052;-72
2022/08/18 12:11:19;;;;;;;2.83;1.42;;;24.60;99.90;;;;;;5078040;28;20075;-71
2022/08/18 12:13:47;;;;;;;2.95;1.20;;;24.70;99.90;;;;;;5054998;28;20537;-73
2022/08/18 12:16:40;;;;;;;3.08;1.40;;;24.80;99.90;;;;;;5080033;28;20039;-74
2022/08/18 12:19:08;;;;;;;4.00;1.50;;;25.20;99.90;;;;;;5072178;28;20040;-73
2022/08/18 12:21:39;;;;;;;2.53;1.25;;;25.70;99.90;;;;;;5070466;28;20054;-73
2022/08/18 12:24:12;;;;;;;2.90;1.15;;;26.20;99.90;;;;;;5085542;28;20060;-73
2022/08/18 12:26:37;;;;;;;1.10;1.00;;;26.60;99.90;;;;;;5058864;28;20126;-73
2022/08/18 12:29:03;;;;;;;3.60;1.30;;;26.70;99.90;;;;;;5057331;28;20135;-73
2022/08/18 12:31:29;;;;;;;2.33;1.17;;;26.90;99.90;;;;;;5071999;28;20051;-73
2022/08/18 12:33:54;;;;;;;2.97;1.00;;;27.10;99.90;;;;;;5061322;28;20513;-73
2022/08/18 12:36:20;;;;;;;3.33;1.20;;;27.10;99.90;;;;;;5071678;28;20087;-73
2022/08/18 12:38:45;;;;;;;2.08;1.10;;;27.00;99.90;;;;;;5057919;28;20396;-73
2022/08/18 12:41:14;;;;;;;5.03;1.40;;;27.00;99.90;;;;;;5075160;28;20032;-73
2022/08/18 12:43:39;;;;;;;2.15;1.20;;;27.40;99.90;;;;;;5075163;28;20068;-73
2022/08/18 12:46:05;;;;;;;3.35;1.35;;;27.70;99.90;;;;;;5075955;28;20076;-73
2022/08/18 12:48:31;;;;;;;2.83;1.10;;;28.00;99.90;;;;;;5072564;28;20043;-73
2022/08/18 12:50:57;;;;;;;3.70;1.30;;;28.10;99.90;;;;;;5055172;28;20036;-73
2022/08/18 12:53:23;;;;;;;2.65;1.15;;;28.10;99.90;;;;;;5071666;28;20490;-73
2022/08/18 12:55:49;;;;;;;5.20;1.30;;;27.90;99.90;;;;;;5090155;28;20517;-73
2022/08/18 12:58:15;;;;;;;4.28;1.20;;;27.70;99.90;;;;;;5072964;28;20028;-73
2022/08/18 13:00:41;;;;;;;2.13;1.17;;;27.50;99.90;;;;;;5058070;28;20125;-73
2022/08/18 13:03:07;;;;;;;4.50;1.58;;;27.40;99.90;;;;;;5072515;28;20079;-73
2022/08/18 13:05:33;;;;;;;1.85;1.17;;;27.40;99.90;;;;;;5071550;28;20036;-73
2022/08/18 13:08:02;;;;;;;2.58;1.33;;;27.70;99.90;;;;;;5057685;28;20471;-73
2022/08/18 13:10:28;;;;;;;2.63;1.45;;;27.90;99.90;;;;;;5079259;28;20040;-73
2022/08/18 13:12:54;;;;;;;2.65;1.25;;;28.20;99.90;;;;;;5080258;28;20051;-73
2022/08/18 13:15:19;;;;;;;3.95;1.30;;;28.50;99.90;;;;;;5079021;28;20501;-73
2022/08/18 13:17:46;;;;;;;3.35;1.25;;;28.70;99.90;;;;;;5063103;28;20051;-73
2022/08/18 13:20:15;;;;;;;2.33;1.15;;;29.00;99.90;;;;;;5071580;28;20131;-73
2022/08/18 13:22:41;;;;;;;5.20;1.17;;;29.20;99.90;;;;;;5070985;28;20040;-73
2022/08/18 13:25:10;;;;;;;1.58;1.20;;;29.50;99.30;;;;;;5068373;28;20043;-74
2022/08/18 13:27:36;;;;;;;2.42;1.13;;;29.70;99.40;;;;;;5071262;28;20067;-73
2022/08/18 13:30:06;;;;;;;2.70;1.40;;;29.90;98.50;;;;;;5088947;28;20123;-73